Time;durP1;ratioP1;P1;durP2;ratioP2;P2;SDS_P1;SDS_P2;PMS_P1;PMS_P2;Temp;Humidity;BMP_temperature;BMP_pressure;BME280_temperature;BME280_humidity;BME280_pressure;Samples;Min_cycle;Max_cycle;Signal;HPM_P1;HPM_P2
2022/08/14 00:00:15;;;;;;;6.97;2.60;;;;;;;23.41;53.90;101314.69;4988101;28;20054;-70
2022/08/14 00:02:40;;;;;;;5.13;3.25;;;;;;;23.48;53.46;101320.97;4989047;28;20157;-70
2022/08/14 00:05:12;;;;;;;6.13;2.35;;;;;;;23.53;53.66;101312.78;4989948;28;20121;-70
2022/08/14 00:07:38;;;;;;;12.68;2.67;;;;;;;23.47;53.75;101305.44;4993758;28;20022;-70
2022/08/14 00:10:05;;;;;;;5.63;2.30;;;;;;;23.38;54.15;101301.31;4980035;28;20389;-70
2022/08/14 00:12:33;;;;;;;7.40;2.88;;;;;;;23.30;54.27;101293.34;4983555;28;20106;-70
2022/08/14 00:14:59;;;;;;;10.30;2.88;;;;;;;23.34;54.19;101294.53;4983785;28;20065;-70
2022/08/14 00:17:25;;;;;;;12.75;2.60;;;;;;;23.44;54.14;101305.06;4992481;28;20049;-70
2022/08/14 00:19:51;;;;;;;8.73;2.80;;;;;;;23.44;53.91;101300.38;4981891;28;20027;-69
2022/08/14 00:22:17;;;;;;;5.07;2.22;;;;;;;23.34;54.26;101294.53;4985575;28;20045;-70
2022/08/14 00:24:44;;;;;;;3.45;2.55;;;;;;;23.43;53.93;101293.16;4985557;28;20033;-70
2022/08/14 00:27:10;;;;;;;4.13;2.65;;;;;;;23.49;54.10;101286.69;4986423;28;20176;-70
2022/08/14 00:29:35;;;;;;;5.60;3.05;;;;;;;23.43;54.19;101281.25;4992535;28;20022;-70
2022/08/14 00:32:00;;;;;;;8.57;2.83;;;;;;;23.36;54.45;101289.66;4983581;28;20033;-70
2022/08/14 00:34:26;;;;;;;4.63;2.60;;;;;;;23.48;53.91;101278.66;4980487;28;20081;-70
2022/08/14 00:36:52;;;;;;;11.05;2.50;;;;;;;23.38;54.64;101284.72;4975653;28;20081;-70
2022/08/14 00:39:17;;;;;;;5.68;2.38;;;;;;;23.25;54.75;101269.16;4988849;28;20022;-70
2022/08/14 00:41:43;;;;;;;4.20;2.30;;;;;;;23.19;55.12;101272.00;4982712;28;20088;-70
2022/08/14 00:44:09;;;;;;;10.60;2.45;;;;;;;23.28;54.82;101273.41;4990060;28;20029;-70
2022/08/14 00:46:38;;;;;;;6.18;2.85;;;;;;;23.13;55.08;101270.16;4983602;28;20370;-70
2022/08/14 00:49:03;;;;;;;6.25;2.70;;;;;;;23.16;55.25;101266.97;4986367;28;20030;-70
2022/08/14 00:51:32;;;;;;;5.78;2.45;;;;;;;23.18;55.22;101256.50;4988786;28;20115;-70
2022/08/14 00:53:58;;;;;;;8.48;2.67;;;;;;;23.27;54.93;101266.16;4974845;28;20065;-70
2022/08/14 00:56:24;;;;;;;5.05;2.63;;;;;;;23.13;55.67;101265.50;4973453;28;20023;-71
2022/08/14 00:58:49;;;;;;;9.43;2.90;;;;;;;23.19;55.19;101260.97;4981344;28;20026;-70
2022/08/14 01:01:17;;;;;;;4.00;2.70;;;;;;;23.27;55.16;101266.16;4985105;28;20015;-70
2022/08/14 01:03:42;;;;;;;4.50;2.63;;;;;;;23.22;55.15;101268.78;4986348;28;20021;-70
2022/08/14 01:06:11;;;;;;;6.55;2.47;;;;;;;23.27;55.36;101267.00;4985068;28;20022;-70
2022/08/14 01:08:37;;;;;;;8.50;2.75;;;;;;;23.28;55.09;101262.34;4992369;28;20112;-70
2022/08/14 01:11:04;;;;;;;7.07;2.55;;;;;;;23.16;55.52;101264.19;4981129;28;20033;-70
2022/08/14 01:13:33;;;;;;;10.48;2.67;;;;;;;23.19;55.56;101269.25;4982727;28;20027;-70
2022/08/14 01:16:01;;;;;;;7.97;2.50;;;;;;;22.98;55.98;101263.13;4975458;28;20031;-70
2022/08/14 01:21:14;;;;;;;7.80;2.47;;;;;;;23.31;55.00;101256.34;4986355;28;20120;-70
2022/08/14 01:23:51;;;;;;;8.95;2.72;;;;;;;23.21;55.18;101256.03;4990107;28;20035;-70
2022/08/14 01:26:19;;;;;;;9.25;2.63;;;;;;;23.25;55.31;101257.25;4976458;28;20030;-70
2022/08/14 01:28:47;;;;;;;6.57;2.22;;;;;;;23.18;55.69;101259.28;4974914;28;20037;-70
2022/08/14 01:31:18;;;;;;;9.80;2.50;;;;;;;23.18;55.65;101256.50;4974362;28;20033;-70
2022/08/14 01:33:49;;;;;;;10.57;3.13;;;;;;;23.00;56.30;101249.91;4982112;28;20030;-70
2022/08/14 01:36:16;;;;;;;7.00;3.83;;;;;;;23.13;56.13;101250.84;4978744;28;20034;-70
2022/08/14 01:38:44;;;;;;;11.25;4.35;;;;;;;23.16;55.96;101247.63;4990221;28;20030;-70
2022/08/14 01:41:13;;;;;;;10.00;4.30;;;;;;;23.07;56.12;101254.53;4990826;28;20381;-70
2022/08/14 01:44:00;;;;;;;10.27;5.18;;;;;;;23.21;55.84;101256.03;4985006;28;20045;-70
2022/08/14 01:46:29;;;;;;;16.15;6.68;;;;;;;23.10;56.19;101254.06;4975940;28;20029;-70
2022/08/14 01:48:56;;;;;;;10.48;6.03;;;;;;;23.11;56.02;101262.13;4977547;28;20015;-70
2022/08/14 01:51:23;;;;;;;16.48;6.00;;;;;;;23.13;56.27;101253.59;4976081;28;20027;-70
2022/08/14 01:53:59;;;;;;;16.15;6.93;;;;;;;22.88;56.45;101240.72;4992710;28;20057;-70
2022/08/14 01:56:38;;;;;;;17.30;8.00;;;;;;;22.98;56.61;101229.16;4978173;28;20039;-70
2022/08/14 01:59:31;;;;;;;15.93;7.93;;;;;;;22.92;56.84;101235.59;4978842;28;20054;-70
2022/08/14 02:02:02;;;;;;;20.63;8.90;;;;;;;22.84;57.10;101228.44;5059902;23;20072;-71
2022/08/14 02:04:33;;;;;;;16.50;9.32;;;;;;;22.88;57.18;101229.66;5004727;28;20034;-71
2022/08/14 02:07:01;;;;;;;20.48;9.93;;;;;;;23.08;56.66;101223.06;5006635;28;20068;-70
2022/08/14 02:09:26;;;;;;;19.20;9.20;;;;;;;23.06;56.56;101220.53;4994213;28;20026;-71
2022/08/14 02:11:52;;;;;;;17.83;7.20;;;;;;;23.06;56.89;101222.47;4983983;28;20091;-71
2022/08/14 02:14:18;;;;;;;11.20;6.13;;;;;;;23.06;56.75;101226.06;4987865;28;20472;-71
2022/08/14 02:16:47;;;;;;;14.43;4.75;;;;;;;22.93;57.17;101227.06;4975698;28;20098;-71
2022/08/14 02:19:20;;;;;;;10.15;4.53;;;;;;;22.83;57.63;101221.22;4977204;28;20027;-71
2022/08/14 02:21:47;;;;;;;7.65;3.95;;;;;;;22.80;57.62;101216.16;4986295;28;20030;-71
2022/08/14 02:24:14;;;;;;;9.15;3.50;;;;;;;22.87;57.71;101205.91;4973124;28;20029;-71
2022/08/14 02:26:46;;;;;;;14.70;2.95;;;;;;;22.82;57.64;101211.25;4980389;28;20042;-71
2022/08/14 02:29:14;;;;;;;;;;;;;;;22.87;57.78;101208.66;4970143;28;20027;-71
2022/08/14 02:31:42;;;;;;;4.10;2.90;;;;;;;22.84;57.62;101211.88;4976591;28;20000;-71
2022/08/14 02:34:17;;;;;;;3.72;2.67;;;;;;;22.91;57.55;101212.66;4977470;28;20062;-70
2022/08/14 02:36:44;;;;;;;9.20;3.45;;;;;;;22.98;57.27;101218.94;4979641;28;20019;-71
2022/08/14 02:39:11;;;;;;;9.18;3.08;;;;;;;22.95;57.82;101208.38;4985858;28;20018;-70
2022/08/14 02:41:37;;;;;;;8.15;3.05;;;;;;;22.80;58.16;101213.41;4981851;28;20034;-70
2022/08/14 02:44:05;;;;;;;6.93;2.67;;;;;;;22.93;57.60;101209.66;4975632;28;20393;-71
2022/08/14 02:46:31;;;;;;;11.10;2.63;;;;;;;22.78;58.27;101200.91;4988714;28;20033;-71
2022/08/14 02:48:57;;;;;;;12.10;2.85;;;;;;;22.84;58.21;101188.94;4971424;28;20026;-71
2022/08/14 02:51:22;;;;;;;5.32;2.47;;;;;;;22.76;58.26;101192.88;4973202;28;20496;-71
2022/08/14 02:53:48;;;;;;;7.22;2.63;;;;;;;22.75;58.40;101185.63;4978973;28;20027;-71
2022/08/14 02:56:18;;;;;;;4.38;2.40;;;;;;;22.59;58.96;101180.75;4989471;28;20097;-72
2022/08/14 02:58:47;;;;;;;3.90;2.40;;;;;;;22.47;59.27;101181.50;4986947;28;20100;-70
2022/08/14 03:01:14;;;;;;;13.32;3.00;;;;;;;22.47;59.33;101184.25;4983590;28;20019;-70
2022/08/14 03:03:41;;;;;;;12.43;2.75;;;;;;;22.55;59.20;101185.03;4979983;28;20022;-71
2022/08/14 03:06:08;;;;;;;11.45;2.70;;;;;;;22.63;59.04;101184.75;4978620;28;20113;-71
2022/08/14 03:08:36;;;;;;;9.93;2.50;;;;;;;22.61;59.03;101184.09;4978096;28;20050;-71
2022/08/14 03:11:09;;;;;;;8.10;2.70;;;;;;;22.46;59.60;101184.50;4975167;28;20053;-71
2022/08/14 03:13:36;;;;;;;6.43;2.47;;;;;;;22.35;59.90;101179.72;4982821;28;20083;-71
2022/08/14 03:16:04;;;;;;;7.40;2.45;;;;;;;22.55;59.30;101187.78;4973359;28;20046;-71
2022/08/14 03:18:30;;;;;;;8.25;2.70;;;;;;;22.53;59.37;101187.19;4975970;28;20098;-71
2022/08/14 03:20:58;;;;;;;3.70;2.53;;;;;;;22.37;59.98;101183.97;4985538;28;20191;-71
2022/08/14 03:23:23;;;;;;;8.98;2.72;;;;;;;22.51;59.78;101184.66;4976660;28;20432;-70
2022/08/14 03:25:49;;;;;;;5.88;2.83;;;;;;;22.55;59.25;101179.50;4987787;28;20018;-71
2022/08/14 03:28:14;;;;;;;6.60;2.80;;;;;;;22.53;59.28;101181.66;4986186;28;20049;-70
2022/08/14 03:30:40;;;;;;;13.70;2.72;;;;;;;22.42;59.67;101175.81;4976036;28;20106;-71
2022/08/14 03:33:12;;;;;;;9.40;2.60;;;;;;;22.52;59.34;101185.50;4979764;28;20026;-71
2022/08/14 03:35:41;;;;;;;3.13;2.47;;;;;;;22.51;59.46;101189.34;4972716;28;20023;-70
2022/08/14 03:38:09;;;;;;;11.77;2.53;;;;;;;22.59;59.19;101180.75;4981062;28;20034;-70
2022/08/14 03:40:37;;;;;;;4.30;2.20;;;;;;;22.53;59.51;101185.25;4971550;28;20118;-70
2022/08/14 03:43:04;;;;;;;7.28;2.63;;;;;;;22.46;59.90;101182.56;4982895;28;20030;-71
2022/08/14 03:45:32;;;;;;;8.48;2.65;;;;;;;22.48;59.55;101180.41;4984778;28;20477;-71
2022/08/14 03:47:59;;;;;;;7.53;3.20;;;;;;;22.37;59.69;101178.44;4981941;28;20033;-71
2022/08/14 03:50:26;;;;;;;6.70;2.42;;;;;;;22.37;59.91;101183.13;4968776;28;20118;-72
2022/08/14 03:52:51;;;;;;;7.93;2.45;;;;;;;22.47;59.48;101173.22;4978351;28;20086;-71
2022/08/14 03:55:17;;;;;;;5.03;2.92;;;;;;;22.42;59.92;101170.28;4973936;28;20437;-71
2022/08/14 03:57:42;;;;;;;8.63;2.95;;;;;;;22.26;60.21;101170.91;4984578;28;20087;-72
2022/08/14 04:00:12;;;;;;;7.57;2.28;;;;;;;22.23;60.36;101165.84;4982526;28;20042;-71
2022/08/14 04:02:39;;;;;;;3.90;2.38;;;;;;;22.23;60.46;101163.09;4972406;28;20109;-71
2022/08/14 04:05:07;;;;;;;9.55;2.58;;;;;;;22.09;60.87;101153.25;4981383;28;20492;-72
2022/08/14 04:07:33;;;;;;;4.45;2.40;;;;;;;21.99;61.28;101163.94;4983113;28;20110;-71
2022/08/14 04:09:59;;;;;;;5.45;2.20;;;;;;;22.17;60.62;101161.25;4977086;28;20101;-72
2022/08/14 04:12:25;;;;;;;8.45;2.40;;;;;;;22.05;60.96;101168.56;4973848;28;20054;-72
2022/08/14 04:14:51;;;;;;;7.15;2.50;;;;;;;22.01;61.10;101156.28;4977097;28;20064;-72
2022/08/14 04:17:18;;;;;;;6.20;3.05;;;;;;;21.89;61.66;101164.44;4983495;28;20058;-71
2022/08/14 04:19:45;;;;;;;4.55;3.13;;;;;;;21.95;61.59;101147.84;4981981;28;20045;-71
2022/08/14 04:22:12;;;;;;;10.63;2.70;;;;;;;22.05;61.22;101146.50;4976879;28;20015;-69
2022/08/14 04:24:38;;;;;;;14.15;3.05;;;;;;;21.93;61.56;101144.47;4971857;28;20049;-70
2022/08/14 04:27:03;;;;;;;6.38;2.67;;;;;;;21.80;61.92;101147.34;4979418;28;20031;-71
2022/08/14 04:29:29;;;;;;;5.43;2.42;;;;;;;21.76;62.46;101143.34;4974750;28;20030;-70
2022/08/14 04:31:54;;;;;;;7.53;2.22;;;;;;;21.66;62.84;101148.53;4985062;28;20338;-70
2022/08/14 04:34:19;;;;;;;3.72;2.50;;;;;;;21.80;62.35;101139.09;4985597;28;20101;-70
2022/08/14 04:44:57;;;;;;;9.80;2.67;;;;;;;22.00;61.96;101138.91;4983539;28;20029;-71
2022/08/14 04:50:06;;;;;;;5.40;2.65;;;;;;;21.92;62.53;101129.00;4987938;28;20030;-71
2022/08/14 04:52:31;;;;;;;10.20;2.60;;;;;;;21.92;62.50;101131.78;4984267;28;20022;-71
2022/08/14 04:54:58;;;;;;;10.35;2.80;;;;;;;21.88;63.14;101130.53;4983506;28;20023;-71
2022/08/14 04:57:24;;;;;;;10.93;3.08;;;;;;;21.95;62.92;101120.28;4983600;28;20018;-70
2022/08/14 04:59:51;;;;;;;11.88;2.45;;;;;;;22.02;62.54;101120.19;4974168;28;20023;-71
2022/08/14 05:02:17;;;;;;;9.80;2.60;;;;;;;21.86;62.91;101127.16;4971252;28;20133;-72
2022/08/14 05:04:42;;;;;;;9.05;2.45;;;;;;;21.86;63.17;101116.13;4977480;28;20105;-71
2022/08/14 05:07:07;;;;;;;12.27;2.70;;;;;;;21.91;63.17;101124.56;4982814;28;20041;-71
2022/08/14 05:09:33;;;;;;;3.13;2.60;;;;;;;21.94;63.19;101128.78;4984790;28;20042;-71
2022/08/14 05:11:58;;;;;;;10.63;3.00;;;;;;;21.71;64.17;101125.81;4982787;28;20054;-71
2022/08/14 05:14:24;;;;;;;17.40;2.47;;;;;;;21.98;63.37;101129.19;4990745;28;20108;-71
2022/08/14 05:16:49;;;;;;;9.55;2.72;;;;;;;21.91;63.42;101119.06;4989912;28;20037;-70
2022/08/14 05:19:15;;;;;;;8.30;2.42;;;;;;;21.95;63.88;101120.28;4982756;28;20038;-71
2022/08/14 05:21:41;;;;;;;12.48;2.47;;;;;;;21.98;63.52;101112.63;4984976;28;20108;-71
2022/08/14 05:24:11;;;;;;;6.25;2.30;;;;;;;21.89;64.05;101121.19;4982052;28;20162;-71
2022/08/14 05:26:40;;;;;;;9.80;2.60;;;;;;;21.88;63.85;101119.50;4986180;28;20025;-71
2022/08/14 05:29:08;;;;;;;6.35;2.83;;;;;;;21.89;64.31;101126.69;4980977;28;20030;-71
2022/08/14 05:31:39;;;;;;;8.05;2.75;;;;;;;22.07;63.96;101122.28;4978186;28;20078;-71
2022/08/14 05:34:07;;;;;;;8.50;2.30;;;;;;;22.16;63.56;101126.44;4982487;28;20026;-72
2022/08/14 05:36:33;;;;;;;6.45;2.53;;;;;;;22.21;63.70;101124.69;4972406;28;20385;-71
2022/08/14 05:38:59;;;;;;;10.00;2.88;;;;;;;22.35;63.17;101119.88;4976963;28;20022;-71
2022/08/14 05:41:25;;;;;;;6.70;2.60;;;;;;;22.32;63.35;101109.31;4977650;28;20041;-70
2022/08/14 05:43:51;;;;;;;9.13;2.45;;;;;;;22.23;63.96;101113.44;4986494;28;20057;-70
2022/08/14 05:46:22;;;;;;;11.75;2.78;;;;;;;22.30;63.72;101116.13;4976295;28;20084;-70
2022/08/14 05:48:55;;;;;;;10.30;2.70;;;;;;;22.32;63.92;101102.94;4987742;28;20036;-70
2022/08/14 05:51:22;;;;;;;11.75;2.45;;;;;;;22.58;63.02;101107.31;4982850;28;20030;-70
2022/08/14 05:53:48;;;;;;;4.95;2.22;;;;;;;22.56;62.81;101098.38;4981114;28;20025;-70
2022/08/14 05:56:13;;;;;;;8.18;2.80;;;;;;;22.68;62.67;101096.53;4984545;28;20023;-71
2022/08/14 05:58:39;;;;;;;11.45;2.50;;;;;;;22.71;62.63;101098.84;4981133;28;20029;-71
2022/08/14 06:01:05;;;;;;;8.57;2.78;;;;;;;22.89;62.22;101093.31;4981404;28;20023;-71
2022/08/14 06:03:30;;;;;;;8.98;2.47;;;;;;;22.93;62.14;101094.50;4978621;28;20023;-71
2022/08/14 06:05:55;;;;;;;12.88;2.40;;;;;;;22.94;62.27;101090.66;4978603;28;20500;-71
2022/08/14 06:08:29;;;;;;;7.75;2.25;;;;;;;23.18;61.21;101099.03;4977720;28;20046;-71
2022/08/14 06:11:04;;;;;;;11.77;2.72;;;;;;;23.10;62.26;101088.34;4985283;28;20030;-71
2022/08/14 06:13:31;;;;;;;5.50;2.25;;;;;;;23.31;61.03;101090.53;4977568;28;20050;-71
2022/08/14 06:15:57;;;;;;;5.38;1.92;;;;;;;23.27;60.98;101089.31;4980169;28;20050;-71
2022/08/14 06:18:23;;;;;;;9.32;2.28;;;;;;;23.28;60.69;101085.50;4982682;28;20085;-71
2022/08/14 06:20:49;;;;;;;15.45;2.55;;;;;;;23.23;61.19;101082.59;4981468;28;20023;-71
2022/08/14 06:23:15;;;;;;;4.90;2.67;;;;;;;23.45;60.54;101069.91;4977682;28;20026;-70
2022/08/14 06:25:41;;;;;;;6.38;2.45;;;;;;;23.50;60.22;101075.56;4986282;28;20076;-71
2022/08/14 06:28:06;;;;;;;10.85;2.28;;;;;;;23.65;60.22;101065.97;4975034;28;20018;-71
2022/08/14 06:30:33;;;;;;;8.05;2.15;;;;;;;23.61;60.02;101073.06;4980644;28;20014;-71
2022/08/14 06:32:59;;;;;;;7.65;2.67;;;;;;;23.86;59.64;101065.34;4983467;28;20240;-71
2022/08/14 06:35:24;;;;;;;7.18;2.10;;;;;;;24.13;58.58;101071.25;4983654;28;20520;-71
2022/08/14 06:37:55;;;;;;;6.43;2.75;;;;;;;24.12;58.98;101068.69;4972631;28;20508;-71
2022/08/14 06:40:29;;;;;;;12.63;2.22;;;;;;;24.23;58.59;101070.63;4974892;28;20392;-72
2022/08/14 06:42:57;;;;;;;12.23;2.50;;;;;;;24.31;58.11;101067.47;4985475;28;20076;-71
2022/08/14 06:45:23;;;;;;;6.07;2.45;;;;;;;24.31;58.22;101070.22;4979584;28;20120;-71
2022/08/14 06:47:48;;;;;;;7.38;2.88;;;;;;;24.41;58.20;101072.41;4978595;28;20065;-71
2022/08/14 06:50:17;;;;;;;12.23;2.90;;;;;;;24.42;58.13;101069.38;4980749;28;20018;-71
2022/08/14 06:52:44;;;;;;;7.63;2.30;;;;;;;24.33;58.76;101073.59;4981714;28;20019;-71
2022/08/14 06:55:12;;;;;;;9.65;2.75;;;;;;;24.64;57.78;101073.16;4980343;28;20046;-71
2022/08/14 06:57:49;;;;;;;29.02;3.03;;;;;;;24.48;58.34;101070.34;4979551;28;20026;-71
2022/08/14 07:00:19;;;;;;;10.82;2.22;;;;;;;24.49;58.30;101066.47;4974992;28;20054;-72
2022/08/14 07:05:48;;;;;;;7.75;2.55;;;;;;;24.77;57.27;101063.72;4977351;28;20022;-71
2022/08/14 07:08:25;;;;;;;8.65;2.50;;;;;;;24.72;57.65;101057.25;4987319;28;20037;-72
2022/08/14 07:10:53;;;;;;;7.10;2.42;;;;;;;24.81;57.98;101055.75;4978462;28;20033;-72
2022/08/14 07:13:20;;;;;;;6.18;2.13;;;;;;;24.94;57.57;101049.91;4970614;28;20023;-72
2022/08/14 07:15:49;;;;;;;11.27;2.40;;;;;;;24.97;57.48;101054.94;4973931;28;20089;-72
2022/08/14 07:18:25;;;;;;;7.60;2.75;;;;;;;24.92;57.44;101054.88;4969921;28;20018;-72
2022/08/14 07:20:52;;;;;;;8.52;2.50;;;;;;;25.10;57.23;101049.13;4985829;28;20026;-72
2022/08/14 07:23:18;;;;;;;15.40;2.78;;;;;;;24.73;57.83;101050.63;4981169;28;20019;-72
2022/08/14 07:25:44;;;;;;;9.57;2.95;;;;;;;24.83;57.66;101048.88;4979838;28;20150;-72
2022/08/14 07:28:38;;;;;;;9.50;2.42;;;;;;;25.20;56.91;101047.63;4977778;28;20019;-72
2022/08/14 07:31:08;;;;;;;10.70;2.88;;;;;;;25.30;56.71;101047.78;4970441;28;20178;-72
2022/08/14 07:33:40;;;;;;;18.40;3.60;;;;;;;25.46;56.35;101041.41;4988029;28;20105;-72
2022/08/14 07:36:09;;;;;;;7.80;2.83;;;;;;;25.49;55.68;101040.88;4974446;28;20362;-72
2022/08/14 07:38:34;;;;;;;11.00;3.33;;;;;;;25.48;56.25;101033.66;4978004;28;20026;-73
2022/08/14 07:41:01;;;;;;;16.63;3.45;;;;;;;25.64;56.25;101043.91;4981948;28;20076;-72
2022/08/14 07:43:26;;;;;;;5.68;2.55;;;;;;;25.67;56.45;101043.38;4979931;28;20033;-73
2022/08/14 07:45:52;;;;;;;3.85;2.30;;;;;;;25.57;56.29;101048.81;4986509;28;20022;-72
2022/08/14 07:48:17;;;;;;;10.27;2.75;;;;;;;26.07;55.36;101045.09;4975262;28;20033;-71
2022/08/14 07:50:44;;;;;;;4.32;2.25;;;;;;;25.96;55.34;101040.53;4979204;28;20018;-71
2022/08/14 07:53:09;;;;;;;8.70;2.47;;;;;;;26.03;54.95;101052.28;4976361;28;20021;-72
2022/08/14 07:55:35;;;;;;;11.30;2.80;;;;;;;26.40;53.70;101040.53;4974346;28;20117;-71
2022/08/14 07:58:01;;;;;;;12.20;3.05;;;;;;;26.23;53.66;101047.00;4981487;28;20101;-71
2022/08/14 08:00:27;;;;;;;8.90;2.63;;;;;;;26.44;53.08;101045.31;4974408;28;20081;-72
2022/08/14 08:02:54;;;;;;;5.82;2.30;;;;;;;26.63;52.63;101056.94;4983935;28;20050;-72
2022/08/14 08:05:23;;;;;;;11.68;3.25;;;;;;;26.91;52.43;101052.22;4985200;28;20031;-72
2022/08/14 08:07:50;;;;;;;17.55;3.38;;;;;;;26.62;52.13;101043.31;4983902;28;20109;-72
2022/08/14 08:10:30;;;;;;;13.45;2.80;;;;;;;26.86;52.20;101041.03;4977963;28;20026;-72
2022/08/14 08:12:58;;;;;;;7.65;2.97;;;;;;;27.39;51.02;101042.13;4983799;28;20022;-72
2022/08/14 08:15:25;;;;;;;13.88;3.60;;;;;;;27.04;51.86;101041.50;4977529;28;20104;-72
2022/08/14 08:17:52;;;;;;;14.40;2.90;;;;;;;27.01;51.48;101046.78;4980043;28;20030;-71
2022/08/14 08:20:20;;;;;;;10.73;2.83;;;;;;;27.24;51.27;101052.00;4968690;28;20034;-73
2022/08/14 08:22:49;;;;;;;10.70;3.13;;;;;;;27.36;50.80;101048.22;4986245;28;20018;-73
2022/08/14 08:25:17;;;;;;;13.50;3.05;;;;;;;27.15;51.69;101048.03;4980723;28;20026;-73
2022/08/14 08:27:53;;;;;;;11.18;3.00;;;;;;;27.47;50.94;101038.84;4973994;28;20105;-72
2022/08/14 08:30:20;;;;;;;6.53;2.95;;;;;;;28.22;48.83;101040.44;4979108;28;20105;-74
2022/08/14 08:32:45;;;;;;;6.18;2.78;;;;;;;28.50;48.80;101043.94;4974363;28;20033;-74
2022/08/14 08:35:22;;;;;;;13.85;3.10;;;;;;;28.65;47.98;101035.59;4978979;28;20105;-73
2022/08/14 08:37:49;;;;;;;15.52;6.07;;;;;;;28.49;48.83;101029.13;4978294;28;20027;-73
2022/08/14 08:40:24;;;;;;;11.82;3.05;;;;;;;28.14;49.44;101032.59;4976276;28;20046;-73
2022/08/14 08:42:49;;;;;;;13.55;2.95;;;;;;;28.41;49.23;101029.69;4975729;28;20105;-73
2022/08/14 08:45:16;;;;;;;11.00;3.08;;;;;;;28.70;48.04;101035.63;4980165;28;20117;-74
2022/08/14 08:47:42;;;;;;;10.57;3.03;;;;;;;28.87;47.59;101036.19;4988853;28;20033;-74
2022/08/14 08:50:31;;;;;;;12.13;3.05;;;;;;;29.18;47.42;101031.50;4998865;28;20114;-73
2022/08/14 08:53:03;;;;;;;8.05;2.90;;;;;;;29.29;47.00;101021.22;4983017;28;20030;-73
2022/08/14 08:55:37;;;;;;;10.02;3.33;;;;;;;29.51;46.05;101017.28;4980997;28;20073;-73
2022/08/14 08:58:06;;;;;;;8.68;3.00;;;;;;;29.05;46.88;101014.50;4999715;28;20061;-74
2022/08/14 09:00:33;;;;;;;12.15;3.67;;;;;;;29.51;46.11;101017.28;4979115;28;20090;-73
2022/08/14 09:03:02;;;;;;;13.73;3.50;;;;;;;29.97;45.59;101013.28;4979837;28;20054;-74
2022/08/14 09:05:28;;;;;;;11.75;3.30;;;;;;;29.94;45.07;101021.41;4986582;28;20018;-73
2022/08/14 09:07:54;;;;;;;10.35;3.47;;;;;;;29.81;45.86;101017.25;4982509;28;20069;-74
2022/08/14 09:10:19;;;;;;;5.38;3.00;;;;;;;29.61;45.73;101028.47;4975019;28;20066;-73
2022/08/14 09:12:46;;;;;;;6.95;3.22;;;;;;;29.46;46.12;101016.16;4986612;28;20034;-74
2022/08/14 09:15:12;;;;;;;15.68;3.53;;;;;;;29.60;46.29;101021.19;4985047;28;20046;-73
2022/08/14 09:17:37;;;;;;;9.70;3.35;;;;;;;29.99;45.08;101013.84;4977925;28;20061;-73
2022/08/14 09:20:04;;;;;;;11.40;3.58;;;;;;;30.00;45.34;101004.34;4980864;28;20062;-74
2022/08/14 09:22:30;;;;;;;16.73;3.13;;;;;;;29.90;45.52;101009.13;4982287;28;20034;-73
2022/08/14 09:24:59;;;;;;;5.75;2.83;;;;;;;29.79;45.33;101001.88;4982505;28;20515;-73
2022/08/14 09:27:24;;;;;;;14.32;3.83;;;;;;;29.79;45.25;101008.31;4982244;28;20030;-74
2022/08/14 09:29:50;;;;;;;7.35;3.90;;;;;;;30.05;44.70;101000.69;4982486;28;20033;-74
2022/08/14 09:32:27;;;;;;;14.45;4.50;;;;;;;29.93;44.97;101003.81;4984485;28;20025;-73
2022/08/14 09:35:22;;;;;;;10.25;3.80;;;;;;;29.92;45.07;100996.53;4992351;28;20085;-73
2022/08/14 09:38:32;;;;;;;8.75;3.70;;;;;;;29.42;45.96;100992.75;4978683;28;20388;-74
2022/08/14 09:41:29;;;;;;;14.73;3.42;;;;;;;29.83;45.61;100981.50;4980046;28;20042;-74
2022/08/14 09:44:32;;;;;;;18.73;4.13;;;;;;;30.06;44.93;100973.59;4981541;28;20018;-73
2022/08/14 09:46:58;;;;;;;9.70;3.85;;;;;;;30.40;43.92;100980.16;4984570;28;20018;-73
2022/08/14 09:49:38;;;;;;;14.98;4.10;;;;;;;30.54;43.71;100978.41;4971556;28;20025;-73
2022/08/14 09:52:13;;;;;;;10.32;3.95;;;;;;;30.92;42.59;100973.13;4979048;28;20042;-74
2022/08/14 09:54:41;;;;;;;11.10;3.72;;;;;;;30.13;44.50;100968.59;4973318;28;20026;-74
2022/08/14 09:57:09;;;;;;;11.27;3.90;;;;;;;30.81;43.45;100974.31;4971692;28;20034;-75
2022/08/14 09:59:46;;;;;;;10.35;4.32;;;;;;;29.98;44.20;100969.44;4989522;28;20041;-72
2022/08/14 10:02:21;;;;;;;10.57;4.30;;;;;;;29.93;43.87;100964.72;4972232;28;20117;-73
2022/08/14 10:05:05;;;;;;;11.30;4.75;;;;;;;30.04;43.13;100959.91;4975500;28;20076;-73
2022/08/14 10:07:36;;;;;;;7.72;3.85;;;;;;;30.40;43.40;100957.81;4975223;28;20499;-74
2022/08/14 10:10:04;;;;;;;18.38;4.70;;;;;;;30.24;43.44;100965.44;4970415;28;20106;-73
2022/08/14 10:12:43;;;;;;;13.68;4.53;;;;;;;30.23;43.71;100957.34;4980003;28;20022;-75
2022/08/14 10:15:20;;;;;;;10.55;4.65;;;;;;;30.22;43.33;100950.94;4979931;28;20032;-74
2022/08/14 10:17:47;;;;;;;12.18;5.03;;;;;;;30.27;43.48;100947.28;4965291;28;20062;-73
2022/08/14 10:20:16;;;;;;;15.02;4.10;;;;;;;30.54;43.54;100942.06;4969364;28;20073;-74
2022/08/14 10:22:41;;;;;;;11.05;4.97;;;;;;;30.53;43.64;100936.78;4987628;28;20045;-73
2022/08/14 10:25:16;;;;;;;14.10;4.43;;;;;;;29.98;44.26;100939.56;4976884;28;20031;-73
2022/08/14 10:27:45;;;;;;;18.95;4.90;;;;;;;30.59;43.47;100943.16;4974189;28;20036;-74
2022/08/14 10:30:17;;;;;;;10.02;4.10;;;;;;;30.04;44.49;100943.16;4969445;28;20026;-73
2022/08/14 10:32:44;;;;;;;13.88;4.43;;;;;;;29.85;44.79;100936.53;4975439;28;20201;-74
2022/08/14 10:35:12;;;;;;;12.18;4.45;;;;;;;29.78;45.41;100938.81;4980218;28;20031;-72
2022/08/14 10:37:40;;;;;;;18.65;5.10;;;;;;;29.75;45.31;100934.66;4973728;28;20030;-73
2022/08/14 10:40:07;;;;;;;8.52;4.60;;;;;;;29.67;45.73;100932.44;4976938;28;20027;-73
2022/08/14 10:42:38;;;;;;;11.23;4.35;;;;;;;30.03;44.81;100929.50;4966799;28;20031;-74
2022/08/14 10:45:19;;;;;;;13.85;3.60;;;;;;;30.13;44.60;100932.28;4977012;28;20423;-73
2022/08/14 10:47:45;;;;;;;8.43;3.75;;;;;;;30.14;45.11;100925.56;4971182;28;20034;-73
2022/08/14 10:50:12;;;;;;;14.77;4.40;;;;;;;30.39;44.76;100928.22;4969364;28;20026;-73
2022/08/14 10:52:37;;;;;;;11.77;4.35;;;;;;;30.05;44.82;100913.28;4975043;28;20018;-73
2022/08/14 10:55:18;;;;;;;14.23;4.47;;;;;;;30.21;44.90;100921.31;4974809;28;20132;-73
2022/08/14 10:57:52;;;;;;;14.68;4.22;;;;;;;29.97;45.20;100929.50;4970674;28;20550;-73
2022/08/14 11:00:27;;;;;;;11.15;4.53;;;;;;;30.21;45.42;100921.31;4976517;28;20023;-73
2022/08/14 11:03:16;;;;;;;6.47;3.70;;;;;;;30.54;43.91;100925.28;4964832;28;20501;-74
2022/08/14 11:05:47;;;;;;;5.10;3.90;;;;;;;30.26;44.64;100912.09;4989138;28;20018;-73
2022/08/14 11:08:15;;;;;;;11.43;4.85;;;;;;;30.51;43.82;100914.69;4966476;28;20504;-74
2022/08/14 11:10:42;;;;;;;11.40;4.50;;;;;;;30.08;44.50;100904.34;4973702;28;20125;-73
2022/08/14 11:13:08;;;;;;;10.20;4.68;;;;;;;29.93;44.40;100914.47;4976080;28;20035;-73
2022/08/14 11:15:35;;;;;;;11.88;4.30;;;;;;;30.06;44.49;100917.72;4966456;28;20015;-73
2022/08/14 11:18:01;;;;;;;11.88;4.75;;;;;;;29.98;44.23;100908.84;4982072;28;20041;-74
2022/08/14 11:20:29;;;;;;;12.05;5.13;;;;;;;30.04;44.23;100914.41;4971112;28;20030;-74
2022/08/14 11:22:58;;;;;;;13.15;4.47;;;;;;;30.35;43.76;100915.94;4973724;28;20018;-73
2022/08/14 11:25:28;;;;;;;10.05;4.50;;;;;;;30.04;44.19;100911.59;4974486;28;20028;-73
2022/08/14 11:27:58;;;;;;;18.75;4.63;;;;;;;30.35;44.26;100910.34;4973761;28;20026;-73
2022/08/14 11:30:27;;;;;;;18.40;4.50;;;;;;;30.42;45.02;100913.63;4977721;28;20033;-73
2022/08/14 11:32:53;;;;;;;8.38;3.67;;;;;;;30.42;45.83;100899.66;4976767;28;20057;-74
2022/08/14 11:35:23;;;;;;;12.73;4.03;;;;;;;30.48;44.28;100909.69;4972305;28;20106;-73
2022/08/14 11:38:16;;;;;;;12.15;3.80;;;;;;;30.68;44.50;100907.91;4978939;28;20022;-74
2022/08/14 11:40:42;;;;;;;14.07;4.53;;;;;;;30.30;44.33;100901.16;4968113;28;20026;-74
2022/08/14 11:43:12;;;;;;;18.25;4.90;;;;;;;30.39;43.99;100896.63;4977335;28;20341;-74
2022/08/14 11:45:40;;;;;;;13.60;5.32;;;;;;;30.47;44.09;100888.47;4975581;28;20116;-73